General Aviation Weather

Text Reports

Enter one or more of the following location identifiers separated by a space:

Zip Code, Four-Character ICAO or Three-Character IATA airport codes.

METAR - Aviation Routine Weather Report
KLHB - Hearne, Texas
Updated at 4:15 PM GMT on September 02, 2014 (11:15 AM CDT):
METAR KLHB 021615Z AUTO 15006KT 10SM 32/23 A2999 RMK AO2 T03150231
TAF - Terminal Area Forecast
KLHB - Hearne, Texas
Updated at 4:15 PM GMT on September 02, 2014 (11:15 AM CDT):
No TAF is currently available for this location.
Decoded:
No decoded TAF is available.
PIREP - Pilot Weather Report
KLHB - Hearne, Texas
Updated at 4:15 PM GMT on September 02, 2014 (11:15 AM CDT):
No PIREP is currently available for this location.
AIRMET - Airmens Meteorological Information
KLHB - Hearne, Texas
Updated at 4:15 PM GMT on September 02, 2014 (11:15 AM CDT):
No AIRMET is currently available for this location.
SIGMET - Significant Meteorological Information
KLHB - Hearne, Texas
Updated at 4:15 PM GMT on September 02, 2014 (11:15 AM CDT):
No SIGMET is currently available for this location.
NOTAM - Notice to Airmen
KLHB - Hearne, Texas
Updated at 4:15 PM GMT on September 02, 2014 (11:15 AM CDT):
No NOTAM is currently available for this location.
Forecast Area
KLHB - Hearne, Texas
Updated at 4:15 PM GMT on September 02, 2014 (11:15 AM CDT):
No NOTAM is currently available for this location.
Aviation Weather Maps